sensor_id;sensor_type;location;lat;lon;timestamp;P1;durP1;ratioP1;P2;durP2;ratioP2
10645;SDS011;5371;49.782;9.932;2023-02-01T00:02:08;4.43;;;3.40;;
10645;SDS011;5371;49.782;9.932;2023-02-01T00:04:41;5.77;;;3.87;;
10645;SDS011;5371;49.782;9.932;2023-02-01T00:07:10;7.70;;;3.90;;
10645;SDS011;5371;49.782;9.932;2023-02-01T00:09:44;5.53;;;4.03;;
10645;SDS011;5371;49.782;9.932;2023-02-01T00:12:14;5.87;;;3.60;;
10645;SDS011;5371;49.782;9.932;2023-02-01T00:14:46;5.07;;;3.37;;
10645;SDS011;5371;49.782;9.932;2023-02-01T00:17:18;5.37;;;3.77;;
10645;SDS011;5371;49.782;9.932;2023-02-01T00:19:46;4.50;;;3.63;;
10645;SDS011;5371;49.782;9.932;2023-02-01T00:22:17;5.03;;;3.67;;
10645;SDS011;5371;49.782;9.932;2023-02-01T00:24:46;4.20;;;3.50;;
10645;SDS011;5371;49.782;9.932;2023-02-01T00:27:14;4.73;;;3.63;;
10645;SDS011;5371;49.782;9.932;2023-02-01T00:29:48;4.60;;;3.67;;
10645;SDS011;5371;49.782;9.932;2023-02-01T00:32:16;4.13;;;3.40;;
10645;SDS011;5371;49.782;9.932;2023-02-01T00:34:46;5.30;;;3.30;;
10645;SDS011;5371;49.782;9.932;2023-02-01T00:37:19;4.67;;;3.23;;
10645;SDS011;5371;49.782;9.932;2023-02-01T00:39:49;4.93;;;3.67;;
10645;SDS011;5371;49.782;9.932;2023-02-01T00:42:24;4.20;;;3.17;;
10645;SDS011;5371;49.782;9.932;2023-02-01T00:44:53;5.00;;;3.70;;
10645;SDS011;5371;49.782;9.932;2023-02-01T00:47:23;5.00;;;3.37;;
10645;SDS011;5371;49.782;9.932;2023-02-01T00:49:55;4.93;;;3.27;;
10645;SDS011;5371;49.782;9.932;2023-02-01T00:52:27;4.57;;;3.53;;
10645;SDS011;5371;49.782;9.932;2023-02-01T00:54:59;3.37;;;2.90;;
10645;SDS011;5371;49.782;9.932;2023-02-01T00:57:36;5.80;;;3.00;;
10645;SDS011;5371;49.782;9.932;2023-02-01T01:00:07;3.63;;;3.20;;
10645;SDS011;5371;49.782;9.932;2023-02-01T01:02:38;4.03;;;2.97;;
10645;SDS011;5371;49.782;9.932;2023-02-01T01:05:11;4.50;;;3.00;;
10645;SDS011;5371;49.782;9.932;2023-02-01T01:07:39;3.63;;;2.93;;
10645;SDS011;5371;49.782;9.932;2023-02-01T01:10:08;3.43;;;2.97;;
10645;SDS011;5371;49.782;9.932;2023-02-01T01:12:38;4.43;;;3.10;;
10645;SDS011;5371;49.782;9.932;2023-02-01T01:15:06;5.50;;;3.20;;
10645;SDS011;5371;49.782;9.932;2023-02-01T01:17:38;4.00;;;2.97;;
10645;SDS011;5371;49.782;9.932;2023-02-01T01:20:08;3.70;;;2.97;;
10645;SDS011;5371;49.782;9.932;2023-02-01T01:22:38;5.53;;;3.20;;
10645;SDS011;5371;49.782;9.932;2023-02-01T01:25:09;4.77;;;3.23;;
10645;SDS011;5371;49.782;9.932;2023-02-01T01:27:39;4.50;;;3.00;;
10645;SDS011;5371;49.782;9.932;2023-02-01T01:30:11;4.40;;;2.97;;
10645;SDS011;5371;49.782;9.932;2023-02-01T01:32:47;4.27;;;3.00;;
10645;SDS011;5371;49.782;9.932;2023-02-01T01:35:23;4.97;;;2.97;;
10645;SDS011;5371;49.782;9.932;2023-02-01T01:37:50;3.43;;;2.90;;
10645;SDS011;5371;49.782;9.932;2023-02-01T01:40:20;5.17;;;3.07;;
10645;SDS011;5371;49.782;9.932;2023-02-01T01:42:59;4.37;;;3.10;;
10645;SDS011;5371;49.782;9.932;2023-02-01T01:45:30;4.23;;;3.10;;
10645;SDS011;5371;49.782;9.932;2023-02-01T01:48:03;4.70;;;3.20;;
10645;SDS011;5371;49.782;9.932;2023-02-01T01:50:35;6.00;;;3.60;;
10645;SDS011;5371;49.782;9.932;2023-02-01T01:53:11;6.40;;;3.13;;
10645;SDS011;5371;49.782;9.932;2023-02-01T01:55:43;3.83;;;3.10;;
10645;SDS011;5371;49.782;9.932;2023-02-01T01:58:14;5.33;;;3.20;;
10645;SDS011;5371;49.782;9.932;2023-02-01T02:00:44;4.77;;;2.73;;
10645;SDS011;5371;49.782;9.932;2023-02-01T02:03:19;4.37;;;2.77;;
10645;SDS011;5371;49.782;9.932;2023-02-01T02:05:51;4.87;;;2.80;;
10645;SDS011;5371;49.782;9.932;2023-02-01T02:08:20;4.27;;;2.90;;
10645;SDS011;5371;49.782;9.932;2023-02-01T02:10:50;3.13;;;2.60;;
10645;SDS011;5371;49.782;9.932;2023-02-01T02:13:27;2.70;;;2.30;;
10645;SDS011;5371;49.782;9.932;2023-02-01T02:16:00;2.83;;;2.40;;
10645;SDS011;5371;49.782;9.932;2023-02-01T02:18:52;3.03;;;2.30;;
10645;SDS011;5371;49.782;9.932;2023-02-01T02:21:41;3.63;;;2.37;;
10645;SDS011;5371;49.782;9.932;2023-02-01T02:24:26;2.57;;;2.20;;
10645;SDS011;5371;49.782;9.932;2023-02-01T02:27:24;2.43;;;2.00;;
10645;SDS011;5371;49.782;9.932;2023-02-01T02:30:17;2.37;;;2.07;;
10645;SDS011;5371;49.782;9.932;2023-02-01T02:36:15;3.90;;;2.10;;
10645;SDS011;5371;49.782;9.932;2023-02-01T02:38:52;2.20;;;2.00;;
10645;SDS011;5371;49.782;9.932;2023-02-01T02:41:30;3.80;;;2.33;;
10645;SDS011;5371;49.782;9.932;2023-02-01T02:44:20;2.60;;;1.80;;
10645;SDS011;5371;49.782;9.932;2023-02-01T02:47:11;3.87;;;2.13;;
10645;SDS011;5371;49.782;9.932;2023-02-01T02:49:54;3.20;;;2.17;;
10645;SDS011;5371;49.782;9.932;2023-02-01T02:52:48;4.13;;;2.37;;
10645;SDS011;5371;49.782;9.932;2023-02-01T02:55:40;2.70;;;2.33;;
10645;SDS011;5371;49.782;9.932;2023-02-01T02:58:09;3.20;;;2.37;;
10645;SDS011;5371;49.782;9.932;2023-02-01T03:00:56;4.67;;;3.00;;
10645;SDS011;5371;49.782;9.932;2023-02-01T03:03:42;4.37;;;2.90;;
10645;SDS011;5371;49.782;9.932;2023-02-01T03:06:35;4.93;;;2.77;;
10645;SDS011;5371;49.782;9.932;2023-02-01T03:09:08;4.53;;;3.27;;
10645;SDS011;5371;49.782;9.932;2023-02-01T03:11:41;5.00;;;3.33;;
10645;SDS011;5371;49.782;9.932;2023-02-01T03:14:31;3.33;;;3.00;;
10645;SDS011;5371;49.782;9.932;2023-02-01T03:17:03;5.70;;;3.90;;
10645;SDS011;5371;49.782;9.932;2023-02-01T03:19:35;7.47;;;3.50;;
10645;SDS011;5371;49.782;9.932;2023-02-01T03:22:09;5.13;;;4.07;;
10645;SDS011;5371;49.782;9.932;2023-02-01T03:24:44;4.60;;;3.83;;
10645;SDS011;5371;49.782;9.932;2023-02-01T03:27:15;6.73;;;4.07;;
10645;SDS011;5371;49.782;9.932;2023-02-01T03:29:49;7.37;;;4.40;;
10645;SDS011;5371;49.782;9.932;2023-02-01T03:32:34;4.90;;;4.20;;
10645;SDS011;5371;49.782;9.932;2023-02-01T03:35:17;5.20;;;4.10;;
10645;SDS011;5371;49.782;9.932;2023-02-01T03:37:55;4.07;;;3.20;;
10645;SDS011;5371;49.782;9.932;2023-02-01T03:40:37;3.97;;;3.33;;
10645;SDS011;5371;49.782;9.932;2023-02-01T03:43:10;4.50;;;3.40;;
10645;SDS011;5371;49.782;9.932;2023-02-01T03:45:45;4.20;;;3.50;;
10645;SDS011;5371;49.782;9.932;2023-02-01T03:48:24;5.03;;;3.40;;
10645;SDS011;5371;49.782;9.932;2023-02-01T03:50:56;5.30;;;3.43;;
10645;SDS011;5371;49.782;9.932;2023-02-01T03:53:31;4.00;;;3.40;;
10645;SDS011;5371;49.782;9.932;2023-02-01T03:56:08;5.10;;;3.30;;
10645;SDS011;5371;49.782;9.932;2023-02-01T03:58:46;4.53;;;3.00;;
10645;SDS011;5371;49.782;9.932;2023-02-01T04:01:35;4.83;;;3.20;;
10645;SDS011;5371;49.782;9.932;2023-02-01T04:04:05;4.40;;;2.60;;
10645;SDS011;5371;49.782;9.932;2023-02-01T04:06:36;3.37;;;2.97;;
10645;SDS011;5371;49.782;9.932;2023-02-01T04:09:07;5.13;;;2.67;;
10645;SDS011;5371;49.782;9.932;2023-02-01T04:11:40;4.30;;;2.73;;
10645;SDS011;5371;49.782;9.932;2023-02-01T04:14:08;3.43;;;1.80;;
10645;SDS011;5371;49.782;9.932;2023-02-01T04:16:40;3.77;;;2.33;;
10645;SDS011;5371;49.782;9.932;2023-02-01T04:19:12;5.23;;;2.10;;
10645;SDS011;5371;49.782;9.932;2023-02-01T04:21:39;8.10;;;2.20;;
10645;SDS011;5371;49.782;9.932;2023-02-01T04:24:10;4.53;;;1.83;;
10645;SDS011;5371;49.782;9.932;2023-02-01T04:26:38;6.47;;;2.20;;
10645;SDS011;5371;49.782;9.932;2023-02-01T04:29:07;8.33;;;2.33;;
10645;SDS011;5371;49.782;9.932;2023-02-01T04:31:35;12.00;;;2.23;;
10645;SDS011;5371;49.782;9.932;2023-02-01T04:34:03;7.70;;;2.17;;
10645;SDS011;5371;49.782;9.932;2023-02-01T04:36:30;7.70;;;2.00;;
10645;SDS011;5371;49.782;9.932;2023-02-01T04:38:58;6.27;;;1.93;;
10645;SDS011;5371;49.782;9.932;2023-02-01T04:41:27;7.40;;;2.00;;
10645;SDS011;5371;49.782;9.932;2023-02-01T04:43:57;7.23;;;2.17;;
10645;SDS011;5371;49.782;9.932;2023-02-01T04:46:25;7.93;;;2.60;;
10645;SDS011;5371;49.782;9.932;2023-02-01T04:48:52;9.40;;;2.20;;
10645;SDS011;5371;49.782;9.932;2023-02-01T04:51:19;8.87;;;2.37;;
10645;SDS011;5371;49.782;9.932;2023-02-01T04:53:48;7.57;;;2.30;;
10645;SDS011;5371;49.782;9.932;2023-02-01T04:56:18;6.83;;;2.00;;
10645;SDS011;5371;49.782;9.932;2023-02-01T04:58:47;8.87;;;2.27;;
10645;SDS011;5371;49.782;9.932;2023-02-01T05:01:15;10.13;;;2.27;;
10645;SDS011;5371;49.782;9.932;2023-02-01T05:03:43;6.70;;;1.90;;
10645;SDS011;5371;49.782;9.932;2023-02-01T05:06:10;9.47;;;2.00;;
10645;SDS011;5371;49.782;9.932;2023-02-01T05:08:37;3.87;;;1.60;;
10645;SDS011;5371;49.782;9.932;2023-02-01T05:11:05;6.73;;;1.50;;
10645;SDS011;5371;49.782;9.932;2023-02-01T05:13:53;6.03;;;1.20;;
10645;SDS011;5371;49.782;9.932;2023-02-01T05:16:23;5.80;;;1.10;;
10645;SDS011;5371;49.782;9.932;2023-02-01T05:18:58;4.47;;;1.33;;
10645;SDS011;5371;49.782;9.932;2023-02-01T05:21:25;7.40;;;1.47;;
10645;SDS011;5371;49.782;9.932;2023-02-01T05:23:52;6.60;;;1.30;;
10645;SDS011;5371;49.782;9.932;2023-02-01T05:26:43;1.70;;;1.00;;
10645;SDS011;5371;49.782;9.932;2023-02-01T05:29:13;6.90;;;1.40;;
10645;SDS011;5371;49.782;9.932;2023-02-01T05:31:43;4.63;;;1.10;;
10645;SDS011;5371;49.782;9.932;2023-02-01T05:34:12;1.93;;;1.13;;
10645;SDS011;5371;49.782;9.932;2023-02-01T05:36:40;2.30;;;0.97;;
10645;SDS011;5371;49.782;9.932;2023-02-01T05:39:08;0.70;;;0.70;;
10645;SDS011;5371;49.782;9.932;2023-02-01T05:41:38;2.83;;;1.00;;
10645;SDS011;5371;49.782;9.932;2023-02-01T05:44:06;1.23;;;1.00;;
10645;SDS011;5371;49.782;9.932;2023-02-01T05:46:34;1.33;;;0.93;;
10645;SDS011;5371;49.782;9.932;2023-02-01T05:49:02;1.30;;;1.00;;
10645;SDS011;5371;49.782;9.932;2023-02-01T05:51:32;1.77;;;1.10;;
10645;SDS011;5371;49.782;9.932;2023-02-01T05:54:03;1.73;;;1.00;;
10645;SDS011;5371;49.782;9.932;2023-02-01T05:56:32;7.13;;;3.27;;
10645;SDS011;5371;49.782;9.932;2023-02-01T05:59:01;2.00;;;1.20;;
10645;SDS011;5371;49.782;9.932;2023-02-01T06:01:29;1.43;;;1.23;;
10645;SDS011;5371;49.782;9.932;2023-02-01T06:03:58;2.60;;;1.30;;
10645;SDS011;5371;49.782;9.932;2023-02-01T06:06:26;2.33;;;1.50;;
10645;SDS011;5371;49.782;9.932;2023-02-01T06:08:56;2.90;;;1.60;;
10645;SDS011;5371;49.782;9.932;2023-02-01T06:11:25;1.60;;;0.93;;
10645;SDS011;5371;49.782;9.932;2023-02-01T06:13:53;5.07;;;2.03;;
10645;SDS011;5371;49.782;9.932;2023-02-01T06:16:22;3.60;;;1.77;;
10645;SDS011;5371;49.782;9.932;2023-02-01T06:18:49;3.67;;;1.80;;
10645;SDS011;5371;49.782;9.932;2023-02-01T06:21:18;3.10;;;1.77;;
10645;SDS011;5371;49.782;9.932;2023-02-01T06:23:50;1.87;;;1.57;;
10645;SDS011;5371;49.782;9.932;2023-02-01T06:26:19;2.77;;;1.70;;
10645;SDS011;5371;49.782;9.932;2023-02-01T06:28:51;4.53;;;2.10;;
10645;SDS011;5371;49.782;9.932;2023-02-01T06:31:25;6.67;;;2.00;;
10645;SDS011;5371;49.782;9.932;2023-02-01T06:33:52;5.87;;;2.00;;
10645;SDS011;5371;49.782;9.932;2023-02-01T06:36:22;3.00;;;1.97;;
10645;SDS011;5371;49.782;9.932;2023-02-01T06:38:51;4.43;;;1.93;;
10645;SDS011;5371;49.782;9.932;2023-02-01T06:41:26;2.57;;;1.90;;
10645;SDS011;5371;49.782;9.932;2023-02-01T06:44:05;5.30;;;1.97;;
10645;SDS011;5371;49.782;9.932;2023-02-01T06:46:48;4.77;;;1.83;;
10645;SDS011;5371;49.782;9.932;2023-02-01T06:49:18;5.50;;;2.13;;
10645;SDS011;5371;49.782;9.932;2023-02-01T06:51:49;5.23;;;2.23;;
10645;SDS011;5371;49.782;9.932;2023-02-01T06:54:24;7.17;;;2.30;;
10645;SDS011;5371;49.782;9.932;2023-02-01T06:57:00;4.87;;;2.20;;
10645;SDS011;5371;49.782;9.932;2023-02-01T06:59:33;7.50;;;2.47;;
10645;SDS011;5371;49.782;9.932;2023-02-01T07:02:11;6.23;;;2.50;;
10645;SDS011;5371;49.782;9.932;2023-02-01T07:04:42;5.87;;;2.50;;
10645;SDS011;5371;49.782;9.932;2023-02-01T07:07:14;7.70;;;2.10;;
10645;SDS011;5371;49.782;9.932;2023-02-01T07:09:51;5.57;;;2.30;;
10645;SDS011;5371;49.782;9.932;2023-02-01T07:12:26;8.83;;;2.50;;
10645;SDS011;5371;49.782;9.932;2023-02-01T07:14:55;8.47;;;3.00;;
10645;SDS011;5371;49.782;9.932;2023-02-01T07:17:28;7.50;;;2.40;;
10645;SDS011;5371;49.782;9.932;2023-02-01T07:19:56;11.60;;;2.93;;
10645;SDS011;5371;49.782;9.932;2023-02-01T07:22:27;7.80;;;2.47;;
10645;SDS011;5371;49.782;9.932;2023-02-01T07:24:55;9.30;;;2.73;;
10645;SDS011;5371;49.782;9.932;2023-02-01T07:27:25;8.53;;;3.00;;
10645;SDS011;5371;49.782;9.932;2023-02-01T07:29:57;10.00;;;2.87;;
10645;SDS011;5371;49.782;9.932;2023-02-01T07:32:28;7.10;;;2.50;;
10645;SDS011;5371;49.782;9.932;2023-02-01T07:34:56;8.67;;;2.97;;
10645;SDS011;5371;49.782;9.932;2023-02-01T07:37:24;13.30;;;3.10;;
10645;SDS011;5371;49.782;9.932;2023-02-01T07:39:55;6.37;;;2.87;;
10645;SDS011;5371;49.782;9.932;2023-02-01T07:42:27;7.57;;;2.57;;
10645;SDS011;5371;49.782;9.932;2023-02-01T07:44:55;9.63;;;3.43;;
10645;SDS011;5371;49.782;9.932;2023-02-01T07:47:26;6.57;;;2.63;;
10645;SDS011;5371;49.782;9.932;2023-02-01T07:49:54;7.80;;;3.07;;
10645;SDS011;5371;49.782;9.932;2023-02-01T07:52:24;10.33;;;3.30;;
10645;SDS011;5371;49.782;9.932;2023-02-01T07:54:55;7.80;;;3.30;;
10645;SDS011;5371;49.782;9.932;2023-02-01T07:57:24;6.93;;;2.83;;
10645;SDS011;5371;49.782;9.932;2023-02-01T07:59:54;8.53;;;2.90;;
10645;SDS011;5371;49.782;9.932;2023-02-01T08:02:41;5.03;;;2.63;;
10645;SDS011;5371;49.782;9.932;2023-02-01T08:05:08;8.57;;;2.63;;
10645;SDS011;5371;49.782;9.932;2023-02-01T08:07:36;6.97;;;2.60;;
10645;SDS011;5371;49.782;9.932;2023-02-01T08:10:03;7.83;;;2.83;;
10645;SDS011;5371;49.782;9.932;2023-02-01T08:12:35;12.47;;;3.00;;
10645;SDS011;5371;49.782;9.932;2023-02-01T08:15:06;7.93;;;2.83;;
10645;SDS011;5371;49.782;9.932;2023-02-01T08:17:35;12.23;;;2.70;;
10645;SDS011;5371;49.782;9.932;2023-02-01T08:20:04;7.53;;;2.80;;
10645;SDS011;5371;49.782;9.932;2023-02-01T08:22:33;6.63;;;2.50;;
10645;SDS011;5371;49.782;9.932;2023-02-01T08:25:00;8.90;;;2.80;;
10645;SDS011;5371;49.782;9.932;2023-02-01T08:27:27;8.47;;;2.70;;
10645;SDS011;5371;49.782;9.932;2023-02-01T08:30:00;7.60;;;2.47;;
10645;SDS011;5371;49.782;9.932;2023-02-01T08:32:32;7.93;;;2.60;;
10645;SDS011;5371;49.782;9.932;2023-02-01T08:35:19;7.10;;;2.87;;
10645;SDS011;5371;49.782;9.932;2023-02-01T08:37:49;7.00;;;2.60;;
10645;SDS011;5371;49.782;9.932;2023-02-01T08:40:22;8.53;;;2.20;;
10645;SDS011;5371;49.782;9.932;2023-02-01T08:42:52;6.53;;;2.50;;
10645;SDS011;5371;49.782;9.932;2023-02-01T08:45:20;9.80;;;2.63;;
10645;SDS011;5371;49.782;9.932;2023-02-01T08:47:53;8.47;;;2.30;;
10645;SDS011;5371;49.782;9.932;2023-02-01T08:50:22;7.43;;;2.37;;
10645;SDS011;5371;49.782;9.932;2023-02-01T08:52:53;7.67;;;2.53;;
10645;SDS011;5371;49.782;9.932;2023-02-01T08:55:24;10.10;;;2.50;;
10645;SDS011;5371;49.782;9.932;2023-02-01T08:57:53;9.30;;;2.43;;
10645;SDS011;5371;49.782;9.932;2023-02-01T09:00:22;4.57;;;2.13;;
10645;SDS011;5371;49.782;9.932;2023-02-01T09:02:56;8.57;;;2.57;;
10645;SDS011;5371;49.782;9.932;2023-02-01T09:05:24;7.57;;;2.23;;
10645;SDS011;5371;49.782;9.932;2023-02-01T09:07:53;6.40;;;2.40;;
10645;SDS011;5371;49.782;9.932;2023-02-01T09:10:20;7.83;;;2.57;;
10645;SDS011;5371;49.782;9.932;2023-02-01T09:12:49;12.63;;;2.73;;
10645;SDS011;5371;49.782;9.932;2023-02-01T09:15:17;11.27;;;2.50;;
10645;SDS011;5371;49.782;9.932;2023-02-01T09:17:44;7.77;;;2.60;;
10645;SDS011;5371;49.782;9.932;2023-02-01T09:20:14;8.03;;;2.60;;
10645;SDS011;5371;49.782;9.932;2023-02-01T09:22:42;6.83;;;2.63;;
10645;SDS011;5371;49.782;9.932;2023-02-01T09:25:09;7.67;;;2.50;;
10645;SDS011;5371;49.782;9.932;2023-02-01T09:27:36;6.70;;;2.50;;
10645;SDS011;5371;49.782;9.932;2023-02-01T09:30:07;13.20;;;2.50;;
10645;SDS011;5371;49.782;9.932;2023-02-01T09:32:37;8.87;;;2.73;;
10645;SDS011;5371;49.782;9.932;2023-02-01T09:35:04;9.30;;;2.70;;
10645;SDS011;5371;49.782;9.932;2023-02-01T09:37:41;8.73;;;2.60;;
10645;SDS011;5371;49.782;9.932;2023-02-01T09:40:10;8.37;;;2.93;;
10645;SDS011;5371;49.782;9.932;2023-02-01T09:42:50;8.47;;;2.60;;
10645;SDS011;5371;49.782;9.932;2023-02-01T09:45:31;8.47;;;2.67;;
10645;SDS011;5371;49.782;9.932;2023-02-01T09:48:05;8.17;;;2.53;;
10645;SDS011;5371;49.782;9.932;2023-02-01T09:50:38;9.50;;;2.50;;
10645;SDS011;5371;49.782;9.932;2023-02-01T09:53:23;5.70;;;2.50;;
10645;SDS011;5371;49.782;9.932;2023-02-01T09:55:56;8.97;;;2.80;;
10645;SDS011;5371;49.782;9.932;2023-02-01T09:58:32;7.37;;;2.20;;
10645;SDS011;5371;49.782;9.932;2023-02-01T10:01:03;9.47;;;2.23;;
10645;SDS011;5371;49.782;9.932;2023-02-01T10:03:33;6.93;;;2.30;;
10645;SDS011;5371;49.782;9.932;2023-02-01T10:06:19;7.80;;;2.23;;
10645;SDS011;5371;49.782;9.932;2023-02-01T10:09:13;9.60;;;2.83;;
10645;SDS011;5371;49.782;9.932;2023-02-01T10:11:52;7.53;;;2.50;;
10645;SDS011;5371;49.782;9.932;2023-02-01T10:14:37;7.80;;;2.87;;
10645;SDS011;5371;49.782;9.932;2023-02-01T10:17:16;7.40;;;2.87;;
10645;SDS011;5371;49.782;9.932;2023-02-01T10:19:55;10.27;;;2.97;;
10645;SDS011;5371;49.782;9.932;2023-02-01T10:22:34;11.03;;;3.90;;
10645;SDS011;5371;49.782;9.932;2023-02-01T10:25:11;9.73;;;3.10;;
10645;SDS011;5371;49.782;9.932;2023-02-01T10:27:44;10.67;;;2.63;;
10645;SDS011;5371;49.782;9.932;2023-02-01T10:30:17;11.60;;;2.83;;
10645;SDS011;5371;49.782;9.932;2023-02-01T10:32:49;8.07;;;2.80;;
10645;SDS011;5371;49.782;9.932;2023-02-01T10:35:26;8.50;;;2.27;;
10645;SDS011;5371;49.782;9.932;2023-02-01T10:37:59;13.40;;;2.77;;
10645;SDS011;5371;49.782;9.932;2023-02-01T10:40:29;7.27;;;2.40;;
10645;SDS011;5371;49.782;9.932;2023-02-01T10:42:57;8.53;;;2.23;;
10645;SDS011;5371;49.782;9.932;2023-02-01T10:45:27;7.27;;;2.03;;
10645;SDS011;5371;49.782;9.932;2023-02-01T10:47:59;9.90;;;2.60;;
10645;SDS011;5371;49.782;9.932;2023-02-01T10:50:41;11.20;;;2.63;;
10645;SDS011;5371;49.782;9.932;2023-02-01T10:53:23;7.20;;;2.80;;
10645;SDS011;5371;49.782;9.932;2023-02-01T10:56:22;8.00;;;2.70;;
10645;SDS011;5371;49.782;9.932;2023-02-01T10:58:52;10.27;;;2.90;;
10645;SDS011;5371;49.782;9.932;2023-02-01T11:01:34;11.87;;;2.63;;
10645;SDS011;5371;49.782;9.932;2023-02-01T11:04:07;7.23;;;2.60;;
10645;SDS011;5371;49.782;9.932;2023-02-01T11:06:44;7.10;;;2.70;;
10645;SDS011;5371;49.782;9.932;2023-02-01T11:09:16;13.73;;;2.57;;
10645;SDS011;5371;49.782;9.932;2023-02-01T11:11:54;6.67;;;2.40;;
10645;SDS011;5371;49.782;9.932;2023-02-01T11:17:23;7.80;;;2.60;;
10645;SDS011;5371;49.782;9.932;2023-02-01T11:19:58;11.33;;;2.60;;
10645;SDS011;5371;49.782;9.932;2023-02-01T11:22:30;9.83;;;2.50;;
10645;SDS011;5371;49.782;9.932;2023-02-01T11:25:00;11.03;;;2.43;;
10645;SDS011;5371;49.782;9.932;2023-02-01T11:27:49;7.73;;;2.43;;
10645;SDS011;5371;49.782;9.932;2023-02-01T11:30:19;8.47;;;2.10;;
10645;SDS011;5371;49.782;9.932;2023-02-01T11:32:57;11.83;;;2.17;;
10645;SDS011;5371;49.782;9.932;2023-02-01T11:35:28;7.10;;;2.10;;
10645;SDS011;5371;49.782;9.932;2023-02-01T11:37:58;7.67;;;2.10;;
10645;SDS011;5371;49.782;9.932;2023-02-01T11:40:34;6.17;;;2.37;;
10645;SDS011;5371;49.782;9.932;2023-02-01T11:43:11;10.20;;;2.00;;
10645;SDS011;5371;49.782;9.932;2023-02-01T11:45:53;8.60;;;2.23;;
10645;SDS011;5371;49.782;9.932;2023-02-01T11:48:23;10.50;;;2.47;;
10645;SDS011;5371;49.782;9.932;2023-02-01T11:50:58;7.43;;;2.23;;
10645;SDS011;5371;49.782;9.932;2023-02-01T11:53:57;7.23;;;2.07;;
10645;SDS011;5371;49.782;9.932;2023-02-01T11:56:42;5.27;;;1.70;;
10645;SDS011;5371;49.782;9.932;2023-02-01T11:59:33;6.80;;;1.57;;
10645;SDS011;5371;49.782;9.932;2023-02-01T12:05:37;6.97;;;2.00;;
10645;SDS011;5371;49.782;9.932;2023-02-01T12:08:21;6.80;;;2.00;;
10645;SDS011;5371;49.782;9.932;2023-02-01T12:11:00;6.43;;;2.20;;
10645;SDS011;5371;49.782;9.932;2023-02-01T12:13:42;7.97;;;2.33;;
10645;SDS011;5371;49.782;9.932;2023-02-01T12:16:22;7.60;;;2.10;;
10645;SDS011;5371;49.782;9.932;2023-02-01T12:22:00;4.13;;;1.50;;
10645;SDS011;5371;49.782;9.932;2023-02-01T12:24:53;8.30;;;1.90;;
10645;SDS011;5371;49.782;9.932;2023-02-01T12:27:51;9.47;;;2.13;;
10645;SDS011;5371;49.782;9.932;2023-02-01T12:30:40;6.00;;;1.80;;
10645;SDS011;5371;49.782;9.932;2023-02-01T12:33:24;8.27;;;1.83;;
10645;SDS011;5371;49.782;9.932;2023-02-01T12:36:04;8.80;;;1.90;;
10645;SDS011;5371;49.782;9.932;2023-02-01T12:38:50;5.70;;;2.03;;
10645;SDS011;5371;49.782;9.932;2023-02-01T12:41:27;8.07;;;2.10;;
10645;SDS011;5371;49.782;9.932;2023-02-01T12:44:24;10.00;;;2.10;;
10645;SDS011;5371;49.782;9.932;2023-02-01T12:46:57;5.50;;;1.83;;
10645;SDS011;5371;49.782;9.932;2023-02-01T12:49:34;7.10;;;1.63;;
10645;SDS011;5371;49.782;9.932;2023-02-01T12:52:13;6.53;;;1.97;;
10645;SDS011;5371;49.782;9.932;2023-02-01T12:54:45;8.93;;;2.20;;
10645;SDS011;5371;49.782;9.932;2023-02-01T12:57:21;8.00;;;2.10;;
10645;SDS011;5371;49.782;9.932;2023-02-01T12:59:55;9.20;;;2.10;;
10645;SDS011;5371;49.782;9.932;2023-02-01T13:02:28;7.93;;;2.30;;
10645;SDS011;5371;49.782;9.932;2023-02-01T13:05:14;5.90;;;1.83;;
10645;SDS011;5371;49.782;9.932;2023-02-01T13:07:47;6.53;;;2.10;;
10645;SDS011;5371;49.782;9.932;2023-02-01T13:10:18;6.40;;;1.97;;
10645;SDS011;5371;49.782;9.932;2023-02-01T13:12:56;6.30;;;1.97;;
10645;SDS011;5371;49.782;9.932;2023-02-01T13:15:36;10.47;;;2.20;;
10645;SDS011;5371;49.782;9.932;2023-02-01T13:18:13;9.27;;;1.90;;
10645;SDS011;5371;49.782;9.932;2023-02-01T13:20:53;7.67;;;2.20;;
10645;SDS011;5371;49.782;9.932;2023-02-01T13:23:26;7.63;;;2.30;;
10645;SDS011;5371;49.782;9.932;2023-02-01T13:25:56;7.27;;;2.07;;
10645;SDS011;5371;49.782;9.932;2023-02-01T13:28:28;9.47;;;2.40;;
10645;SDS011;5371;49.782;9.932;2023-02-01T13:31:08;6.67;;;2.13;;
10645;SDS011;5371;49.782;9.932;2023-02-01T13:34:01;7.27;;;2.47;;
10645;SDS011;5371;49.782;9.932;2023-02-01T13:36:59;5.87;;;1.83;;
10645;SDS011;5371;49.782;9.932;2023-02-01T13:39:45;7.03;;;1.67;;
10645;SDS011;5371;49.782;9.932;2023-02-01T13:42:19;10.50;;;2.20;;
10645;SDS011;5371;49.782;9.932;2023-02-01T13:44:49;7.57;;;1.97;;
10645;SDS011;5371;49.782;9.932;2023-02-01T13:47:24;4.97;;;1.77;;
10645;SDS011;5371;49.782;9.932;2023-02-01T13:49:56;6.73;;;2.60;;
10645;SDS011;5371;49.782;9.932;2023-02-01T13:52:39;8.37;;;2.20;;
10645;SDS011;5371;49.782;9.932;2023-02-01T13:55:26;7.10;;;1.67;;
10645;SDS011;5371;49.782;9.932;2023-02-01T13:58:12;6.27;;;1.87;;
10645;SDS011;5371;49.782;9.932;2023-02-01T14:03:53;10.63;;;2.07;;
10645;SDS011;5371;49.782;9.932;2023-02-01T14:09:18;4.93;;;1.70;;
10645;SDS011;5371;49.782;9.932;2023-02-01T14:12:04;7.03;;;2.20;;
10645;SDS011;5371;49.782;9.932;2023-02-01T14:15:18;7.83;;;1.80;;
10645;SDS011;5371;49.782;9.932;2023-02-01T14:17:48;8.07;;;1.90;;
10645;SDS011;5371;49.782;9.932;2023-02-01T14:23:20;7.77;;;1.73;;
10645;SDS011;5371;49.782;9.932;2023-02-01T14:26:09;6.90;;;2.03;;
10645;SDS011;5371;49.782;9.932;2023-02-01T14:28:42;6.97;;;1.80;;
10645;SDS011;5371;49.782;9.932;2023-02-01T14:34:15;4.57;;;1.30;;
10645;SDS011;5371;49.782;9.932;2023-02-01T14:36:47;6.03;;;1.30;;
10645;SDS011;5371;49.782;9.932;2023-02-01T14:39:21;7.40;;;2.10;;
10645;SDS011;5371;49.782;9.932;2023-02-01T14:42:03;5.67;;;1.70;;
10645;SDS011;5371;49.782;9.932;2023-02-01T14:44:39;5.40;;;1.80;;
10645;SDS011;5371;49.782;9.932;2023-02-01T14:50:12;7.73;;;1.97;;
10645;SDS011;5371;49.782;9.932;2023-02-01T14:53:11;6.97;;;1.73;;
10645;SDS011;5371;49.782;9.932;2023-02-01T14:55:46;7.93;;;1.40;;
10645;SDS011;5371;49.782;9.932;2023-02-01T14:58:18;8.97;;;2.10;;
10645;SDS011;5371;49.782;9.932;2023-02-01T15:00:57;5.43;;;1.53;;
10645;SDS011;5371;49.782;9.932;2023-02-01T15:03:31;9.67;;;2.00;;
10645;SDS011;5371;49.782;9.932;2023-02-01T15:06:23;5.87;;;1.57;;
10645;SDS011;5371;49.782;9.932;2023-02-01T15:08:57;7.70;;;1.90;;
10645;SDS011;5371;49.782;9.932;2023-02-01T15:11:31;8.27;;;2.00;;
10645;SDS011;5371;49.782;9.932;2023-02-01T15:14:29;7.57;;;1.90;;
10645;SDS011;5371;49.782;9.932;2023-02-01T15:16:59;5.33;;;1.70;;
10645;SDS011;5371;49.782;9.932;2023-02-01T15:19:28;6.73;;;2.00;;
10645;SDS011;5371;49.782;9.932;2023-02-01T15:21:57;12.63;;;1.97;;
10645;SDS011;5371;49.782;9.932;2023-02-01T15:24:26;7.50;;;2.03;;
10645;SDS011;5371;49.782;9.932;2023-02-01T15:26:55;7.27;;;2.20;;
10645;SDS011;5371;49.782;9.932;2023-02-01T15:29:33;7.73;;;1.93;;
10645;SDS011;5371;49.782;9.932;2023-02-01T15:32:03;6.67;;;2.07;;
10645;SDS011;5371;49.782;9.932;2023-02-01T15:34:45;10.37;;;2.30;;
10645;SDS011;5371;49.782;9.932;2023-02-01T15:37:15;7.17;;;2.10;;
10645;SDS011;5371;49.782;9.932;2023-02-01T15:40:14;8.50;;;1.93;;
10645;SDS011;5371;49.782;9.932;2023-02-01T15:42:51;4.80;;;1.60;;
10645;SDS011;5371;49.782;9.932;2023-02-01T15:45:22;9.23;;;1.97;;
10645;SDS011;5371;49.782;9.932;2023-02-01T15:47:57;8.77;;;2.30;;
10645;SDS011;5371;49.782;9.932;2023-02-01T15:50:26;12.77;;;2.23;;
10645;SDS011;5371;49.782;9.932;2023-02-01T15:52:58;13.07;;;2.23;;
10645;SDS011;5371;49.782;9.932;2023-02-01T15:55:29;5.57;;;1.57;;
10645;SDS011;5371;49.782;9.932;2023-02-01T15:58:14;10.47;;;2.30;;
10645;SDS011;5371;49.782;9.932;2023-02-01T16:00:47;8.07;;;2.00;;
10645;SDS011;5371;49.782;9.932;2023-02-01T16:03:24;9.67;;;2.30;;
10645;SDS011;5371;49.782;9.932;2023-02-01T16:05:55;8.03;;;2.10;;
10645;SDS011;5371;49.782;9.932;2023-02-01T16:08:25;7.40;;;1.90;;
10645;SDS011;5371;49.782;9.932;2023-02-01T16:10:54;9.17;;;2.17;;
10645;SDS011;5371;49.782;9.932;2023-02-01T16:13:27;3.53;;;1.70;;